Hillsboro, North Carolina
Current Conditions -  °F | °C
As of 3:56 AM on Wednesday 22 Oct 2014 (Local Time) from KIGX Reporting Station
Scattered Clouds Scattered Clouds  
Wind Chill: 46°   Ceiling: Unl
Heat Index: 49°   Visibility: 10mi
Dew Point: 40°   Wind: 7mph
Humidity: 71%   Direction: 290°WNW
Pressure: 29.94"   Gusts: NA
Location:  36.0821°N, 79.0824°W
Report Text: KIGX 220756Z AUTO 29006KT 10SM SCT055 09/04 A2994 RMK AO2 SLP136 T00940044
Loading
Personal Weather Stations






























Interactive Weather Map
Tropical Storm Tracking
New forecast layout! Learn more

10-Day Weather Forecast

Advertisements
Track Severe Weather on mobile